ePrivacy and GPDR Cookie Consent by Cookie Consent
EmailTwitter


Surface observations / United Kingdom / EGLL (03772)

Regions: Quebec | Canada | USA | Europe | France | UK | Elsewhere
Station
Display
Info & Location for EGLL (03772) | Help decoding METAR

Weather Conditions observed on 2021/06/20 at 15:20 UTC at LONDON/HEATHROW, UK (EGLL)

Sky conditions: partly cloudy.

Temperature: 17.0 Celsius.

Dewpoint: 13.0 Celsius.

Relative Humidity: 77%

Winds: North-northeast at 13 km/h or 7 knots.

Mean Sea level Pressure: 100.80 kilopascals.

Horizontal visibility: 6.21 statute miles or 9.94 kilometers.

Height of the Ceiling: 701 metres ( 2300 feet ).

Coded METAR:

EGLL 201520Z AUTO 02007KT 350V060 9999 SCT019 BKN023 BKN027 17/13 Q1008 NOSIG=